Time;durP1;ratioP1;P1;durP2;ratioP2;P2;SDS_P1;SDS_P2;PMS_P1;PMS_P2;Temp;Humidity;BMP_temperature;BMP_pressure;BME280_temperature;BME280_humidity;BME280_pressure;Samples;Min_cycle;Max_cycle;Signal;HPM_P1;HPM_P2
2021/03/07 00:02:24;;;;;;;5.83;3.40;;;;;;;1.33;74.98;99087.03;5051928;28;20201;-69
2021/03/07 00:04:51;;;;;;;6.83;4.33;;;;;;;1.42;74.19;99082.88;5049248;28;20237;-71
2021/03/07 00:07:18;;;;;;;9.80;3.33;;;;;;;1.28;74.61;99085.72;5050236;28;20208;-71
2021/03/07 00:09:45;;;;;;;8.30;3.60;;;;;;;1.28;74.17;99086.56;5051591;28;20309;-69
2021/03/07 00:12:11;;;;;;;8.90;4.17;;;;;;;1.31;73.83;99086.31;5050970;28;20211;-70
2021/03/07 00:14:39;;;;;;;9.30;4.33;;;;;;;1.07;76.89;99082.94;5046013;28;20229;-70
2021/03/07 00:17:06;;;;;;;7.63;3.83;;;;;;;0.92;77.29;99084.06;5046902;28;20209;-70
2021/03/07 00:19:34;;;;;;;8.57;3.60;;;;;;;1.10;75.86;99085.34;5051116;28;20710;-70
2021/03/07 00:22:01;;;;;;;5.53;3.17;;;;;;;1.20;74.40;99083.69;5051333;28;20267;-71
2021/03/07 00:24:27;;;;;;;6.53;3.10;;;;;;;1.28;72.16;99093.63;5050106;28;20225;-72
2021/03/07 00:26:54;;;;;;;6.90;3.50;;;;;;;1.24;72.29;99082.50;5050995;28;20224;-71
2021/03/07 00:29:21;;;;;;;4.13;3.13;;;;;;;1.10;73.95;99084.47;5049524;28;20206;-71
2021/03/07 00:31:49;;;;;;;7.60;3.73;;;;;;;0.82;75.24;99080.47;5050390;28;20197;-70
2021/03/07 00:34:16;;;;;;;8.67;4.40;;;;;;;1.00;75.20;99079.09;5050474;28;20229;-70
2021/03/07 00:36:43;;;;;;;6.90;3.57;;;;;;;0.95;74.85;99077.75;5050885;28;20206;-70
2021/03/07 00:39:10;;;;;;;6.63;3.20;;;;;;;1.14;72.77;99076.28;5050665;28;20621;-70
2021/03/07 00:41:36;;;;;;;4.63;2.60;;;;;;;1.16;70.02;99078.75;5049532;28;20198;-70
2021/03/07 00:44:05;;;;;;;6.50;3.30;;;;;;;1.25;70.55;99071.03;5052141;28;20709;-69
2021/03/07 00:46:32;;;;;;;5.97;2.90;;;;;;;1.09;72.77;99073.16;5047249;28;20208;-73
2021/03/07 00:49:00;;;;;;;6.17;2.57;;;;;;;1.08;72.01;99068.00;5053117;28;20296;-72
2021/03/07 00:51:26;;;;;;;6.53;3.10;;;;;;;1.01;73.41;99066.78;5052015;28;20197;-71
2021/03/07 00:53:54;;;;;;;5.80;2.87;;;;;;;1.01;73.39;99067.63;5051413;28;20225;-72
2021/03/07 00:56:21;;;;;;;6.97;2.87;;;;;;;0.75;74.58;99060.00;5051567;28;20202;-69
2021/03/07 00:58:48;;;;;;;6.33;3.07;;;;;;;0.91;73.53;99056.13;5049141;28;20259;-70
2021/03/07 01:01:14;;;;;;;5.33;2.83;;;;;;;0.72;74.98;99055.81;5051587;28;20666;-71
2021/03/07 01:03:42;;;;;;;5.30;2.93;;;;;;;0.74;74.91;99053.94;5050140;28;20221;-70
2021/03/07 01:06:10;;;;;;;6.37;3.00;;;;;;;0.87;73.11;99049.44;5050784;28;20205;-75
2021/03/07 01:08:37;;;;;;;6.13;2.63;;;;;;;0.94;72.40;99055.06;5050463;28;20198;-70
2021/03/07 01:11:04;;;;;;;4.33;2.60;;;;;;;0.80;73.37;99045.59;5051446;28;20197;-70
2021/03/07 01:13:31;;;;;;;3.87;2.77;;;;;;;0.88;74.32;99045.03;5050780;28;20701;-70
2021/03/07 01:15:58;;;;;;;3.70;2.40;;;;;;;0.62;74.07;99038.25;5051658;28;20615;-70
2021/03/07 01:18:25;;;;;;;7.10;2.93;;;;;;;0.72;74.64;99036.63;5051496;28;20212;-71
2021/03/07 01:20:52;;;;;;;6.53;3.20;;;;;;;0.91;73.21;99039.50;5051603;28;20201;-71
2021/03/07 01:23:21;;;;;;;4.90;2.60;;;;;;;0.87;74.21;99028.41;5051606;28;20224;-72
2021/03/07 01:25:48;;;;;;;5.83;2.97;;;;;;;0.74;75.71;99032.06;5051253;28;20210;-72
2021/03/07 01:28:15;;;;;;;6.43;3.30;;;;;;;0.49;79.26;99027.81;5051584;28;20197;-70
2021/03/07 01:30:43;;;;;;;5.60;2.60;;;;;;;0.67;77.81;99028.25;5045756;28;20202;-71
2021/03/07 01:33:10;;;;;;;5.30;3.13;;;;;;;0.69;77.08;99021.94;5044340;28;20287;-72
2021/03/07 01:35:38;;;;;;;5.20;2.93;;;;;;;0.79;75.87;99022.06;5051365;28;20204;-72
2021/03/07 01:38:05;;;;;;;5.90;3.23;;;;;;;0.67;76.91;99010.69;5051949;28;20197;-71
2021/03/07 01:40:35;;;;;;;5.57;3.13;;;;;;;0.59;77.84;99018.31;5050782;28;20255;-72
2021/03/07 01:43:03;;;;;;;7.90;3.27;;;;;;;0.49;79.79;99008.59;5047073;28;20224;-69
2021/03/07 01:45:31;;;;;;;6.37;3.30;;;;;;;0.34;79.16;98999.22;5048997;28;20206;-71
2021/03/07 01:48:01;;;;;;;7.70;3.63;;;;;;;0.64;78.05;99003.03;5051247;28;20206;-71
2021/03/07 01:50:30;;;;;;;5.73;3.03;;;;;;;0.41;80.59;98990.78;5054193;28;20216;-71
2021/03/07 01:52:59;;;;;;;6.47;3.57;;;;;;;0.39;80.00;98986.59;5055048;28;20236;-71
2021/03/07 01:55:33;;;;;;;7.43;3.33;;;;;;;0.60;79.85;98985.00;5054454;28;20210;-71
2021/03/07 01:58:03;;;;;;;6.40;3.13;;;;;;;0.68;78.10;98991.38;5055075;28;20202;-72
2021/03/07 02:00:30;;;;;;;5.87;3.27;;;;;;;0.59;78.17;98981.53;5053210;28;20258;-72
2021/03/07 02:02:57;;;;;;;8.10;3.60;;;;;;;0.39;82.09;98974.31;5054885;28;20222;-71
2021/03/07 02:05:25;;;;;;;6.03;3.23;;;;;;;0.31;83.92;98962.72;5049192;28;20213;-71
2021/03/07 02:07:52;;;;;;;6.07;3.50;;;;;;;0.53;81.61;98971.50;5055154;28;20197;-71
2021/03/07 02:10:23;;;;;;;7.17;3.27;;;;;;;0.45;81.65;98970.38;5050658;28;20566;-71
2021/03/07 02:12:52;;;;;;;7.30;3.73;;;;;;;0.30;83.10;98967.13;5053338;28;20190;-71
2021/03/07 02:15:20;;;;;;;7.07;3.27;;;;;;;0.37;84.07;98960.44;5053262;28;20682;-71
2021/03/07 02:17:47;;;;;;;6.07;3.20;;;;;;;0.10;85.83;98952.00;5054760;28;20327;-71
2021/03/07 02:20:17;;;;;;;6.00;3.13;;;;;;;0.24;85.72;98954.47;5054290;28;20237;-71
2021/03/07 02:22:47;;;;;;;8.80;3.50;;;;;;;0.37;82.50;98951.75;5054156;28;20734;-72
2021/03/07 02:25:15;;;;;;;5.87;2.93;;;;;;;0.42;82.10;98953.06;5053762;28;20216;-71
2021/03/07 02:27:42;;;;;;;7.47;3.33;;;;;;;0.49;80.28;98950.81;5053900;28;20206;-72
2021/03/07 02:30:12;;;;;;;7.17;3.50;;;;;;;0.34;81.47;98944.09;5051663;28;20670;-73
2021/03/07 02:32:43;;;;;;;6.50;2.77;;;;;;;0.29;81.63;98939.22;5048742;28;20205;-71
2021/03/07 02:35:16;;;;;;;8.03;3.50;;;;;;;0.46;81.09;98938.78;5054060;28;20208;-71
2021/03/07 02:37:47;;;;;;;6.07;3.67;;;;;;;0.32;80.75;98936.34;5052874;28;20202;-71
2021/03/07 02:40:17;;;;;;;5.07;3.23;;;;;;;0.44;80.28;98932.81;5051086;28;20263;-69
2021/03/07 02:42:45;;;;;;;6.57;3.07;;;;;;;0.40;79.11;98922.63;5053859;28;20201;-69
2021/03/07 02:45:15;;;;;;;7.90;3.13;;;;;;;0.48;78.50;98920.28;5050401;28;20237;-70
2021/03/07 02:47:48;;;;;;;5.73;3.17;;;;;;;0.47;77.77;98914.19;5053697;28;20654;-70
2021/03/07 02:50:18;;;;;;;5.37;2.90;;;;;;;0.38;77.22;98914.91;5051411;28;20673;-70
2021/03/07 02:52:53;;;;;;;5.83;3.17;;;;;;;0.50;77.32;98908.72;5053891;28;20213;-71
2021/03/07 02:55:20;;;;;;;6.70;3.20;;;;;;;0.39;79.01;98902.59;5053981;28;20197;-71
2021/03/07 02:57:48;;;;;;;8.40;2.80;;;;;;;0.41;78.50;98904.16;5053540;28;20233;-72
2021/03/07 03:00:16;;;;;;;5.67;3.23;;;;;;;0.36;78.89;98897.59;5053246;28;20206;-71
2021/03/07 03:02:45;;;;;;;6.17;2.83;;;;;;;0.40;77.44;98899.00;5050615;28;20232;-71
2021/03/07 03:05:13;;;;;;;5.27;3.10;;;;;;;0.50;77.56;98903.44;5053543;28;20208;-72
2021/03/07 03:07:41;;;;;;;6.07;3.23;;;;;;;0.41;78.34;98903.31;5053792;28;20252;-71
2021/03/07 03:10:11;;;;;;;5.57;3.43;;;;;;;0.32;78.64;98898.78;5053217;28;20248;-70
2021/03/07 03:12:40;;;;;;;8.37;3.43;;;;;;;0.40;78.81;98891.97;5048869;28;20227;-71
2021/03/07 03:15:10;;;;;;;6.37;3.57;;;;;;;0.50;77.79;98894.72;5052985;28;20220;-71
2021/03/07 03:17:37;;;;;;;7.00;3.30;;;;;;;0.51;77.48;98892.00;5048262;28;20209;-71
2021/03/07 03:20:08;;;;;;;5.93;3.00;;;;;;;0.52;77.44;98890.22;5048353;28;20209;-70
2021/03/07 03:22:35;;;;;;;6.17;3.47;;;;;;;0.40;77.62;98893.75;5047636;28;20257;-71
2021/03/07 03:25:02;;;;;;;5.70;2.90;;;;;;;0.30;78.88;98891.00;5048328;28;20293;-70
2021/03/07 03:27:29;;;;;;;5.60;3.20;;;;;;;0.16;80.57;98885.94;5053013;28;20206;-71
2021/03/07 03:29:56;;;;;;;8.27;3.50;;;;;;;0.21;80.83;98881.19;5048208;28;20212;-71
2021/03/07 03:32:23;;;;;;;6.17;2.90;;;;;;;0.26;79.10;98879.06;5053749;28;20198;-70
2021/03/07 03:34:50;;;;;;;5.80;2.97;;;;;;;0.25;79.50;98880.00;5052976;28;20239;-72
2021/03/07 03:37:19;;;;;;;5.37;3.13;;;;;;;0.32;77.68;98878.59;5053370;28;20197;-72
2021/03/07 03:39:47;;;;;;;4.60;2.87;;;;;;;0.26;78.30;98886.94;5052861;28;20208;-71
2021/03/07 03:42:14;;;;;;;5.40;3.00;;;;;;;0.34;78.45;98881.94;5050986;28;20225;-70
2021/03/07 03:44:41;;;;;;;6.80;3.27;;;;;;;0.31;78.34;98878.72;5052528;28;20280;-70
2021/03/07 03:47:11;;;;;;;6.00;2.90;;;;;;;0.37;76.80;98889.56;5053225;28;20221;-71
2021/03/07 03:49:45;;;;;;;5.87;3.13;;;;;;;0.40;77.25;98884.09;5053032;28;20289;-70
2021/03/07 03:52:12;;;;;;;5.27;3.30;;;;;;;0.39;76.96;98885.06;5052979;28;20255;-71
2021/03/07 03:54:44;;;;;;;5.27;3.00;;;;;;;0.52;76.06;98880.53;5052343;28;20236;-72
2021/03/07 03:57:12;;;;;;;7.10;3.77;;;;;;;0.43;75.63;98877.78;5052074;28;20689;-72
2021/03/07 03:59:40;;;;;;;6.07;3.43;;;;;;;0.46;75.47;98877.56;5052709;28;20206;-72
2021/03/07 04:02:07;;;;;;;5.17;3.07;;;;;;;0.46;76.03;98877.56;5052183;28;20297;-71
2021/03/07 04:04:35;;;;;;;7.10;3.50;;;;;;;0.47;76.39;98877.41;5052196;28;20217;-71
2021/03/07 04:07:02;;;;;;;7.67;3.57;;;;;;;0.29;76.54;98872.75;5052295;28;20292;-71
2021/03/07 04:09:29;;;;;;;5.03;2.90;;;;;;;0.04;79.85;98865.03;5052076;28;20194;-70
2021/03/07 04:11:57;;;;;;;5.53;3.03;;;;;;;0.09;80.89;98855.03;5050584;28;20708;-71
2021/03/07 04:14:25;;;;;;;5.50;2.93;;;;;;;0.16;79.85;98859.69;5052102;28;20291;-70
2021/03/07 04:16:52;;;;;;;5.67;2.70;;;;;;;0.20;79.31;98866.41;5052563;28;20351;-70
2021/03/07 04:19:19;;;;;;;4.83;3.13;;;;;;;0.27;78.48;98872.03;5051992;28;20873;-70
2021/03/07 04:21:47;;;;;;;5.07;2.63;;;;;;;0.16;79.65;98861.50;5052022;28;20291;-71
2021/03/07 04:24:14;;;;;;;6.47;3.07;;;;;;;-0.09;81.31;98865.13;5049086;28;20308;-70
2021/03/07 04:26:41;;;;;;;5.80;3.30;;;;;;;-0.01;81.65;98857.53;5051876;28;20201;-71
2021/03/07 04:29:08;;;;;;;8.57;3.03;;;;;;;0.01;81.89;98852.97;5049218;28;20681;-70
2021/03/07 04:31:36;;;;;;;4.53;2.97;;;;;;;0.07;80.96;98856.94;5052314;28;20201;-71
2021/03/07 04:34:03;;;;;;;6.27;3.10;;;;;;;-0.03;82.00;98850.72;5051562;28;20233;-71
2021/03/07 04:36:30;;;;;;;5.73;3.40;;;;;;;-0.10;83.18;98854.75;5051745;28;20204;-70
2021/03/07 04:38:58;;;;;;;7.97;3.17;;;;;;;0.05;82.72;98837.84;5047682;28;20202;-70
2021/03/07 04:41:25;;;;;;;4.43;3.10;;;;;;;-0.10;83.98;98847.72;5050526;28;20205;-71
2021/03/07 04:43:53;;;;;;;7.37;3.20;;;;;;;-0.14;85.28;98856.75;5051233;28;20260;-70
2021/03/07 04:46:20;;;;;;;7.40;3.13;;;;;;;-0.04;83.68;98844.63;5051617;28;20208;-70
2021/03/07 04:48:48;;;;;;;6.20;3.00;;;;;;;-0.04;82.90;98844.63;5048068;28;20218;-71
2021/03/07 04:51:15;;;;;;;6.77;3.27;;;;;;;0.08;82.70;98848.97;5052076;28;20201;-71
2021/03/07 04:53:42;;;;;;;6.43;3.60;;;;;;;0.13;82.66;98841.59;5050433;28;20256;-71
2021/03/07 04:56:10;;;;;;;4.57;2.47;;;;;;;0.07;82.53;98842.03;5051691;28;20208;-71
2021/03/07 04:58:37;;;;;;;5.23;3.50;;;;;;;0.01;84.42;98841.66;5044195;28;20208;-72
2021/03/07 05:01:05;;;;;;;7.13;3.57;;;;;;;-0.07;88.15;98834.38;5051928;28;20209;-70
2021/03/07 05:03:32;;;;;;;5.73;3.27;;;;;;;0.05;85.51;98840.47;5051138;28;20240;-71
2021/03/07 05:05:59;;;;;;;6.67;3.30;;;;;;;0.00;85.36;98846.06;5051633;28;20205;-71
2021/03/07 05:08:27;;;;;;;7.33;3.33;;;;;;;0.05;86.25;98840.47;5051049;28;20209;-71
2021/03/07 05:10:54;;;;;;;5.37;3.23;;;;;;;-0.05;85.87;98832.47;5051737;28;20209;-70
2021/03/07 05:13:22;;;;;;;5.50;3.07;;;;;;;-0.08;88.46;98834.47;5051448;28;20490;-71
2021/03/07 05:15:50;;;;;;;11.20;4.30;;;;;;;-0.11;88.38;98830.31;5051349;28;20205;-70
2021/03/07 05:18:17;;;;;;;4.70;2.97;;;;;;;0.00;88.30;98832.94;5051719;28;20209;-70
2021/03/07 05:20:44;;;;;;;5.83;3.10;;;;;;;0.04;87.75;98829.16;5051620;28;20211;-71
2021/03/07 05:23:10;;;;;;;6.13;3.00;;;;;;;0.10;87.44;98830.47;5052745;28;20579;-71
2021/03/07 05:25:37;;;;;;;5.50;3.27;;;;;;;0.13;85.95;98825.00;5050438;28;20296;-71
2021/03/07 05:28:05;;;;;;;7.80;3.73;;;;;;;0.03;86.32;98830.13;5055566;28;20565;-71
2021/03/07 05:30:32;;;;;;;6.40;3.40;;;;;;;0.02;87.08;98820.53;5054985;28;20704;-71
2021/03/07 05:32:59;;;;;;;5.17;3.20;;;;;;;-0.01;86.71;98810.28;5055600;28;20232;-71
2021/03/07 05:35:26;;;;;;;6.97;4.17;;;;;;;0.10;86.20;98817.34;5055159;28;20643;-71
2021/03/07 05:37:53;;;;;;;8.10;3.63;;;;;;;-0.07;87.65;98809.91;5055815;28;20197;-70
2021/03/07 05:40:20;;;;;;;7.83;3.40;;;;;;;0.07;87.02;98807.91;5052090;28;20201;-71
2021/03/07 05:42:47;;;;;;;6.30;3.80;;;;;;;0.05;87.37;98817.69;5055039;28;20662;-71
2021/03/07 05:45:14;;;;;;;7.33;3.60;;;;;;;0.06;87.18;98815.94;5054875;28;20662;-71
2021/03/07 05:47:41;;;;;;;7.10;3.60;;;;;;;-0.09;88.21;98820.50;5055548;28;20208;-71
2021/03/07 05:50:10;;;;;;;6.70;3.53;;;;;;;-0.03;86.83;98820.09;5055072;28;20209;-71
2021/03/07 05:52:36;;;;;;;11.23;4.20;;;;;;;-0.01;86.00;98814.69;5047166;28;20665;-70
2021/03/07 05:55:04;;;;;;;8.77;3.90;;;;;;;0.16;84.16;98816.91;5054529;28;20221;-70
2021/03/07 05:57:31;;;;;;;7.40;3.77;;;;;;;0.28;82.26;98811.56;5054833;28;20210;-71
2021/03/07 06:00:01;;;;;;;7.03;3.67;;;;;;;0.06;84.26;98811.50;5054613;28;20662;-71
2021/03/07 06:02:28;;;;;;;7.90;4.03;;;;;;;0.23;82.80;98812.84;5049125;28;20236;-70
2021/03/07 06:04:55;;;;;;;9.37;3.70;;;;;;;0.32;82.08;98807.72;5054614;28;20221;-71
2021/03/07 06:07:22;;;;;;;6.10;3.63;;;;;;;0.19;83.26;98806.16;5052704;28;20209;-72
2021/03/07 06:09:50;;;;;;;10.80;3.57;;;;;;;0.33;82.86;98787.56;5054895;28;20197;-71
2021/03/07 06:12:19;;;;;;;7.27;4.23;;;;;;;0.39;82.62;98790.56;5054609;28;20197;-72
2021/03/07 06:15:00;;;;;;;7.70;4.17;;;;;;;0.31;82.57;98787.66;5054262;28;20276;-70
2021/03/07 06:17:39;;;;;;;6.17;3.63;;;;;;;0.24;85.25;98783.00;5054489;28;20201;-71
2021/03/07 06:20:08;;;;;;;7.37;4.07;;;;;;;0.36;85.28;98785.53;5054452;28;20221;-71
2021/03/07 06:22:37;;;;;;;8.17;3.97;;;;;;;0.31;85.24;98786.84;5046521;28;20252;-71
2021/03/07 06:25:06;;;;;;;7.63;4.00;;;;;;;0.36;84.70;98792.59;5048940;28;20210;-71
2021/03/07 06:27:33;;;;;;;7.70;3.70;;;;;;;0.59;83.66;98792.47;5054272;28;20201;-72
2021/03/07 06:30:03;;;;;;;7.07;4.00;;;;;;;0.59;82.84;98784.59;5054354;28;20296;-71
2021/03/07 06:32:32;;;;;;;8.40;4.13;;;;;;;0.72;82.60;98789.72;5054507;28;20323;-71
2021/03/07 06:34:59;;;;;;;8.17;3.50;;;;;;;0.75;82.00;98786.81;5053593;28;20230;-71
2021/03/07 06:37:27;;;;;;;9.03;3.93;;;;;;;0.76;82.23;98789.34;5053773;28;20580;-70
2021/03/07 06:39:54;;;;;;;8.80;4.20;;;;;;;0.88;82.18;98784.91;5051761;28;20677;-72
2021/03/07 06:42:21;;;;;;;8.20;3.87;;;;;;;0.95;81.05;98786.94;5054629;28;20243;-71
2021/03/07 06:44:57;;;;;;;6.97;4.00;;;;;;;0.96;80.71;98783.34;5060425;28;20217;-71
2021/03/07 06:47:24;;;;;;;7.27;3.80;;;;;;;1.10;79.63;98780.44;5058691;28;20197;-72
2021/03/07 06:50:07;;;;;;;7.00;3.83;;;;;;;1.06;79.77;98779.00;5054374;28;20205;-71
2021/03/07 06:52:35;;;;;;;7.87;4.50;;;;;;;1.34;78.79;98777.63;5054987;28;20206;-71
2021/03/07 06:55:03;;;;;;;8.33;3.77;;;;;;;1.23;79.26;98775.03;5051805;28;20779;-71
2021/03/07 06:57:30;;;;;;;6.10;3.93;;;;;;;1.43;78.12;98780.31;5053140;28;20202;-73
2021/03/07 06:59:57;;;;;;;7.13;4.10;;;;;;;1.69;77.30;98770.31;5047832;28;20819;-73
2021/03/07 07:02:24;;;;;;;6.33;3.60;;;;;;;1.70;76.77;98788.59;5051760;28;20304;-73
2021/03/07 07:04:51;;;;;;;10.53;4.13;;;;;;;1.83;75.69;98786.59;5051735;28;20715;-77
2021/03/07 07:07:20;;;;;;;7.87;3.80;;;;;;;2.03;73.85;98779.69;5053294;28;20202;-73
2021/03/07 07:09:48;;;;;;;9.50;4.13;;;;;;;2.18;72.97;98788.91;5046572;28;20205;-72
2021/03/07 07:12:23;;;;;;;7.33;3.70;;;;;;;2.33;72.22;98787.59;5049853;28;20197;-72
2021/03/07 07:14:51;;;;;;;7.60;4.03;;;;;;;2.48;71.52;98778.38;5048349;28;20235;-72
2021/03/07 07:17:19;;;;;;;8.57;3.87;;;;;;;2.61;70.65;98782.47;5050374;28;20205;-72
2021/03/07 07:19:47;;;;;;;7.30;4.20;;;;;;;2.72;68.25;98792.94;5053555;28;20654;-73
2021/03/07 07:22:16;;;;;;;10.73;4.90;;;;;;;2.84;67.58;98775.22;5053760;28;20209;-72
2021/03/07 07:24:44;;;;;;;7.33;4.10;;;;;;;2.97;67.03;98783.69;5055924;28;20217;-74
2021/03/07 07:27:12;;;;;;;8.43;4.50;;;;;;;3.05;66.99;98784.69;5051761;28;20205;-74
2021/03/07 07:29:39;;;;;;;6.20;4.33;;;;;;;3.18;66.14;98780.00;5052944;28;20300;-70
2021/03/07 07:32:09;;;;;;;8.67;4.60;;;;;;;3.24;65.20;98783.88;5053888;28;20352;-79
2021/03/07 07:34:43;;;;;;;10.17;4.03;;;;;;;3.41;65.95;98778.78;5052168;28;20720;-72
2021/03/07 07:37:14;;;;;;;7.23;4.20;;;;;;;3.48;65.15;98779.91;5049121;28;20209;-71
2021/03/07 07:39:43;;;;;;;8.00;4.60;;;;;;;3.61;65.72;98779.63;5048141;28;20193;-74
2021/03/07 07:42:20;;;;;;;10.13;4.30;;;;;;;3.65;63.01;98787.13;5052337;28;20722;-71
2021/03/07 07:44:47;;;;;;;8.27;4.50;;;;;;;3.83;62.03;98785.47;5047717;28;20222;-73
2021/03/07 07:47:14;;;;;;;8.33;4.70;;;;;;;4.10;61.14;98792.66;5052846;28;20559;-71
2021/03/07 07:49:44;;;;;;;7.63;4.33;;;;;;;4.36;60.43;98791.09;5051030;28;20201;-70
2021/03/07 07:52:37;;;;;;;9.03;5.10;;;;;;;3.49;62.05;98791.28;5050214;28;20206;-71
2021/03/07 07:55:11;;;;;;;7.63;4.37;;;;;;;3.32;63.64;98781.41;5047952;28;20225;-72
2021/03/07 07:57:47;;;;;;;9.83;4.67;;;;;;;3.53;62.85;98782.97;5050621;28;20198;-75
2021/03/07 08:00:17;;;;;;;7.03;4.43;;;;;;;3.56;63.34;98787.94;5052112;28;20284;-72
2021/03/07 08:02:52;;;;;;;7.80;4.50;;;;;;;3.57;63.49;98779.09;5047985;28;20209;-71
2021/03/07 08:05:44;;;;;;;10.33;4.90;;;;;;;3.47;64.03;98775.59;5047627;28;20362;-70
2021/03/07 08:08:33;;;;;;;8.90;4.70;;;;;;;3.53;64.35;98777.69;5150482;27;20531;-70
2021/03/07 08:11:02;;;;;;;7.87;4.60;;;;;;;3.79;63.84;98777.94;5149308;27;20198;-70
2021/03/07 08:14:01;;;;;;;7.60;4.23;;;;;;;3.75;63.99;98771.28;5152920;27;20305;-81
2021/03/07 08:16:42;;;;;;;7.90;4.73;;;;;;;3.74;63.47;98775.75;5154584;27;20278;-71
2021/03/07 08:19:16;;;;;;;9.20;4.97;;;;;;;3.98;62.41;98772.66;5152341;27;20198;-76
2021/03/07 08:22:04;;;;;;;6.63;4.47;;;;;;;4.67;60.89;98780.09;5139488;27;20743;-69
2021/03/07 08:25:00;;;;;;;7.03;4.30;;;;;;;4.98;59.67;98778.84;5146953;27;20214;-70
2021/03/07 08:27:46;;;;;;;9.63;5.30;;;;;;;4.51;59.98;98773.75;5138112;27;20721;-69
2021/03/07 08:30:16;;;;;;;7.07;4.40;;;;;;;4.71;58.23;98781.50;5140227;27;20203;-69
2021/03/07 08:32:53;;;;;;;9.13;5.27;;;;;;;4.37;60.76;98759.22;5147657;27;20226;-69
2021/03/07 08:35:24;;;;;;;8.80;4.83;;;;;;;5.37;56.84;98767.06;5142537;27;20240;-76
2021/03/07 08:38:19;;;;;;;8.80;4.83;;;;;;;6.10;54.78;98769.38;5139376;27;20205;-68
2021/03/07 08:40:58;;;;;;;8.17;4.67;;;;;;;5.90;53.02;98778.50;5142006;27;20566;-69
2021/03/07 08:43:54;;;;;;;7.93;4.50;;;;;;;5.66;54.36;98775.63;5139097;27;20223;-73
2021/03/07 08:46:26;;;;;;;10.07;5.20;;;;;;;5.87;53.87;98767.38;5143908;27;20228;-72
2021/03/07 08:48:55;;;;;;;8.37;5.17;;;;;;;6.18;53.12;98764.16;5146894;27;20263;-71
2021/03/07 08:51:30;;;;;;;9.60;4.97;;;;;;;6.96;50.68;98763.91;5136733;27;20207;-71
2021/03/07 08:54:03;;;;;;;9.80;5.20;;;;;;;6.82;49.89;98766.34;5136464;27;20758;-77
2021/03/07 08:56:30;;;;;;;9.83;5.07;;;;;;;6.36;51.93;98756.16;5141207;27;20228;-69
2021/03/07 08:58:58;;;;;;;9.27;5.40;;;;;;;6.36;51.44;98757.00;5144050;27;20205;-72
2021/03/07 09:01:25;;;;;;;8.80;5.20;;;;;;;6.72;49.74;98755.88;5142734;27;20202;-71
2021/03/07 09:03:55;;;;;;;10.83;5.50;;;;;;;7.09;48.13;98760.81;5139594;27;20221;-71
2021/03/07 09:06:26;;;;;;;8.73;4.97;;;;;;;6.01;52.49;98749.13;5142312;27;20220;-71
2021/03/07 09:09:03;;;;;;;9.43;5.83;;;;;;;5.77;52.76;98748.06;5150148;27;20244;-74
2021/03/07 09:11:30;;;;;;;7.87;4.63;;;;;;;6.21;51.79;98744.47;5143967;27;20578;-71
2021/03/07 09:13:57;;;;;;;8.77;4.80;;;;;;;6.59;50.46;98751.97;5140975;27;20224;-72
2021/03/07 09:16:42;;;;;;;8.50;5.37;;;;;;;6.15;51.38;98748.56;5145248;27;20248;-75
2021/03/07 09:19:27;;;;;;;7.27;4.53;;;;;;;6.76;50.28;98738.63;5142972;27;20203;-71
2021/03/07 09:22:13;;;;;;;7.50;4.57;;;;;;;6.98;48.31;98747.84;5121076;27;20249;-71
2021/03/07 09:24:49;;;;;;;9.97;5.23;;;;;;;7.05;48.20;98744.38;5132778;27;20655;-70
2021/03/07 09:27:17;;;;;;;9.03;5.10;;;;;;;7.25;47.96;98744.97;5129167;27;20228;-71
2021/03/07 09:30:01;;;;;;;9.10;5.43;;;;;;;6.94;49.18;98739.38;5135712;27;20335;-74
2021/03/07 09:32:30;;;;;;;8.47;4.87;;;;;;;6.53;50.70;98731.38;5135061;27;20210;-75
2021/03/07 09:34:59;;;;;;;9.00;4.87;;;;;;;6.71;50.50;98729.50;5132223;27;20212;-74
2021/03/07 09:37:26;;;;;;;8.23;5.17;;;;;;;6.43;52.07;98720.06;5134630;27;20210;-73
2021/03/07 09:39:53;;;;;;;7.53;4.63;;;;;;;7.53;48.06;98733.91;5130004;27;20214;-73
2021/03/07 09:42:21;;;;;;;8.13;5.07;;;;;;;8.46;45.41;98741.34;5128764;27;20210;-75
2021/03/07 09:44:48;;;;;;;9.13;5.40;;;;;;;8.23;46.86;98727.09;5131748;27;20580;-73
2021/03/07 09:47:16;;;;;;;10.73;5.70;;;;;;;7.49;48.73;98721.09;5139003;27;20628;-74
2021/03/07 09:49:44;;;;;;;8.20;4.80;;;;;;;7.69;48.35;98715.31;5129083;27;20198;-71
2021/03/07 09:52:14;;;;;;;8.30;5.37;;;;;;;7.73;49.03;98713.16;5130163;27;20210;-75
2021/03/07 09:54:53;;;;;;;8.53;5.20;;;;;;;7.62;48.57;98713.47;5126716;27;20216;-76
2021/03/07 09:57:22;;;;;;;10.03;5.47;;;;;;;7.24;49.91;98709.59;5132053;27;20210;-78
2021/03/07 09:59:50;;;;;;;8.97;5.53;;;;;;;8.37;47.48;98710.47;5134675;27;20312;-72
2021/03/07 10:02:17;;;;;;;9.67;5.37;;;;;;;8.37;46.30;98713.13;5132678;27;20239;-74
2021/03/07 10:04:46;;;;;;;10.97;5.80;;;;;;;9.00;44.98;98721.88;5133041;27;20309;-73
2021/03/07 10:07:25;;;;;;;8.40;4.63;;;;;;;9.14;43.66;98715.81;5124165;27;20225;-73
2021/03/07 10:10:03;;;;;;;8.57;5.73;;;;;;;8.48;44.32;98716.22;5133174;27;20201;-73
2021/03/07 10:12:42;;;;;;;6.80;5.27;;;;;;;8.80;44.93;98707.31;5127845;27;20601;-72
2021/03/07 10:15:10;;;;;;;8.93;4.97;;;;;;;8.21;46.64;98695.34;5129701;27;20332;-73
2021/03/07 10:17:39;;;;;;;9.37;5.77;;;;;;;8.01;46.11;98699.34;5130717;27;20213;-73
2021/03/07 10:20:08;;;;;;;12.13;5.57;;;;;;;8.15;47.00;98701.31;5133056;27;20195;-77
2021/03/07 10:22:39;;;;;;;14.43;5.67;;;;;;;8.16;46.69;98694.16;5135471;27;20282;-76
2021/03/07 10:25:07;;;;;;;7.57;4.80;;;;;;;8.52;45.49;98701.59;5133920;27;20659;-77
2021/03/07 10:27:34;;;;;;;11.50;5.70;;;;;;;8.83;45.48;98697.16;5138178;27;20739;-81
2021/03/07 10:30:02;;;;;;;10.90;5.60;;;;;;;8.56;45.51;98689.63;5128581;27;20207;-85
2021/03/07 10:32:29;;;;;;;11.77;5.33;;;;;;;8.65;46.18;98685.09;5126869;27;20724;-80
2021/03/07 10:34:56;;;;;;;9.33;5.50;;;;;;;8.68;45.36;98685.56;5135508;27;20255;-78
2021/03/07 10:37:42;;;;;;;9.97;5.47;;;;;;;8.69;46.26;98679.25;5138191;27;20195;-79
2021/03/07 10:40:11;;;;;;;9.07;5.67;;;;;;;8.99;45.58;98688.25;5134995;27;20207;-76
2021/03/07 10:42:39;;;;;;;10.43;5.67;;;;;;;8.93;45.35;98683.66;5134232;27;20196;-76
2021/03/07 10:45:15;;;;;;;11.80;6.23;;;;;;;8.99;45.49;98683.75;5123268;27;20204;-79
2021/03/07 10:47:42;;;;;;;8.30;5.27;;;;;;;9.88;44.02;98671.47;5128086;27;20219;-81
2021/03/07 10:50:09;;;;;;;8.87;6.00;;;;;;;9.34;45.12;98680.53;5127806;27;20211;-79
2021/03/07 10:52:36;;;;;;;10.63;5.47;;;;;;;10.10;42.79;98675.94;5131751;27;20199;-75
2021/03/07 10:55:12;;;;;;;7.97;5.27;;;;;;;9.07;44.45;98689.03;5127592;27;20204;-76
2021/03/07 10:57:39;;;;;;;8.00;5.40;;;;;;;9.10;45.17;98678.06;5129274;27;20205;-75
2021/03/07 11:00:07;;;;;;;10.10;5.97;;;;;;;9.07;45.21;98667.75;5124316;27;20203;-74
2021/03/07 11:02:35;;;;;;;10.93;6.20;;;;;;;9.71;45.48;98664.63;5129052;27;20676;-79
2021/03/07 11:05:02;;;;;;;16.53;5.87;;;;;;;9.83;43.43;98676.50;5131659;27;20219;-74
2021/03/07 11:07:29;;;;;;;10.00;5.97;;;;;;;9.33;44.71;98659.44;5132396;27;20230;-76
2021/03/07 11:09:56;;;;;;;9.87;5.73;;;;;;;9.76;44.41;98662.25;5129621;27;20200;-81
2021/03/07 11:12:22;;;;;;;10.33;5.93;;;;;;;9.91;43.95;98664.94;5121617;27;20689;-77
2021/03/07 11:14:49;;;;;;;9.80;6.07;;;;;;;10.03;43.15;98674.16;5120943;27;20222;-76
2021/03/07 11:17:16;;;;;;;8.50;5.57;;;;;;;10.28;42.51;98673.78;5117525;27;20216;-76
2021/03/07 11:19:44;;;;;;;7.80;5.40;;;;;;;10.01;43.10;98665.53;5133694;27;20209;-78
2021/03/07 11:22:11;;;;;;;8.70;5.23;;;;;;;10.85;41.68;98673.97;5134186;27;20202;-79
2021/03/07 11:24:38;;;;;;;11.43;6.00;;;;;;;10.31;41.89;98678.72;5131211;27;20580;-76
2021/03/07 11:27:05;;;;;;;18.63;6.50;;;;;;;10.61;41.65;98666.25;5133636;27;20215;-75
2021/03/07 11:29:32;;;;;;;10.63;6.40;;;;;;;10.01;41.90;98677.03;5133448;27;20263;-79
2021/03/07 11:31:58;;;;;;;11.03;5.83;;;;;;;9.82;42.34;98671.34;5120125;27;20294;-79
2021/03/07 11:34:25;;;;;;;9.97;5.30;;;;;;;10.83;40.37;98673.28;5134269;27;20223;-76
2021/03/07 11:36:53;;;;;;;10.43;6.13;;;7.80;1.00;;;11.15;39.38;98665.69;5125977;27;20213;-77
2021/03/07 11:39:19;;;;;;;8.97;5.53;;;7.80;1.00;;;10.85;39.67;98666.75;5112475;28;20399;-78
2021/03/07 11:41:46;;;;;;;10.17;5.93;;;7.80;1.00;;;10.99;39.38;98657.91;5112562;28;20199;-75
2021/03/07 11:44:18;;;;;;;8.23;5.33;;;7.70;1.00;;;10.89;40.60;98651.19;5106496;28;20304;-80
2021/03/07 11:46:44;;;;;;;9.17;5.77;;;7.70;1.00;;;10.07;40.84;98656.81;5110978;28;20207;-78
2021/03/07 11:49:11;;;;;;;10.40;6.17;;;7.60;1.00;;;10.50;40.51;98648.03;5107210;28;20776;-82
2021/03/07 11:51:37;;;;;;;12.03;5.80;;;7.60;1.00;;;10.20;41.06;98646.38;5115151;28;20547;-83